IWA12LA SLVR-SBEG
Flight info
| Callsign | IWA12LA |
|---|---|
| Flight time | 2h 16m |
| Altitude | 37000 |
| Route | PAKES DCT NILSO UL322 ANRIB DCT ISIPA DCT IRUMO |
| Aircraft | A320/M-SBDE3FGHIRWY/LB2 |
Departure
| Time | 2026-05-05 16:48 |
|---|---|
| Airport | Viru Viru International Airport (SLVR) |
Arrival
| Time | 2026-05-05 19:05 |
|---|---|
| Airport | Eduardo Gomes International Airport (SBEG) |
| Time | Latitude | Longitude | Altitude | Speed | Heading |
|---|---|---|---|---|---|
| 2026-05-05 16:06 | -17.64629 | -63.13876 | 1229 ft | 0 kts | 48° |
| 2026-05-05 16:38 | -17.64632 | -63.13879 | 1228 ft | 3 kts | 49° |
| 2026-05-05 16:38 | -17.64646 | -63.13901 | 1228 ft | 4 kts | 71° |
| 2026-05-05 16:39 | -17.64650 | -63.13928 | 1228 ft | 4 kts | 103° |
| 2026-05-05 16:39 | -17.64639 | -63.13953 | 1228 ft | 4 kts | 134° |
| 2026-05-05 16:39 | -17.64628 | -63.13963 | 1228 ft | 0 kts | 146° |
| 2026-05-05 16:41 | -17.64629 | -63.13962 | 1228 ft | 1 kts | 146° |
| 2026-05-05 16:42 | -17.64646 | -63.13950 | 1228 ft | 7 kts | 146° |
| 2026-05-05 16:42 | -17.64706 | -63.13911 | 1228 ft | 13 kts | 147° |
| 2026-05-05 16:42 | -17.64781 | -63.13862 | 1228 ft | 12 kts | 150° |
| 2026-05-05 16:42 | -17.64847 | -63.13821 | 1229 ft | 12 kts | 147° |
| 2026-05-05 16:43 | -17.64879 | -63.13751 | 1229 ft | 11 kts | 71° |
| 2026-05-05 16:43 | -17.64842 | -63.13687 | 1229 ft | 10 kts | 58° |
| 2026-05-05 16:43 | -17.64798 | -63.13613 | 1229 ft | 13 kts | 58° |
| 2026-05-05 16:43 | -17.64821 | -63.13545 | 1229 ft | 10 kts | 141° |
| 2026-05-05 16:44 | -17.64892 | -63.13498 | 1229 ft | 14 kts | 146° |
| 2026-05-05 16:44 | -17.64993 | -63.13427 | 1229 ft | 20 kts | 147° |
| 2026-05-05 16:44 | -17.65102 | -63.13354 | 1229 ft | 18 kts | 147° |
| 2026-05-05 16:44 | -17.65199 | -63.13290 | 1230 ft | 15 kts | 147° |
| 2026-05-05 16:45 | -17.65283 | -63.13233 | 1230 ft | 13 kts | 147° |
| 2026-05-05 16:45 | -17.65363 | -63.13180 | 1230 ft | 13 kts | 147° |
| 2026-05-05 16:45 | -17.65462 | -63.13113 | 1231 ft | 21 kts | 147° |
| 2026-05-05 16:45 | -17.65590 | -63.13027 | 1231 ft | 21 kts | 147° |
| 2026-05-05 16:46 | -17.65704 | -63.12949 | 1232 ft | 18 kts | 146° |
| 2026-05-05 16:46 | -17.65772 | -63.12903 | 1232 ft | 17 kts | 147° |
| 2026-05-05 16:46 | -17.65858 | -63.12834 | 1232 ft | 15 kts | 124° |
| 2026-05-05 16:46 | -17.65852 | -63.12743 | 1232 ft | 12 kts | 58° |
| 2026-05-05 16:47 | -17.65803 | -63.12674 | 1233 ft | 11 kts | 37° |
| 2026-05-05 16:47 | -17.65752 | -63.12686 | 1233 ft | 0 kts | 326° |
| 2026-05-05 16:47 | -17.65752 | -63.12687 | 1233 ft | 0 kts | 326° |
| 2026-05-05 16:47 | -17.65691 | -63.12727 | 1239 ft | 38 kts | 328° |
| 2026-05-05 16:48 | -17.65269 | -63.13009 | 1231 ft | 103 kts | 327° |
| 2026-05-05 16:48 | -17.64519 | -63.13512 | 1250 ft | 150 kts | 327° |
| 2026-05-05 16:48 | -17.63653 | -63.14113 | 1864 ft | 148 kts | 326° |
| 2026-05-05 16:48 | -17.62790 | -63.14712 | 2539 ft | 148 kts | 326° |
| 2026-05-05 16:49 | -17.61929 | -63.15324 | 3051 ft | 155 kts | 324° |
| 2026-05-05 16:49 | -17.60993 | -63.15993 | 3334 ft | 173 kts | 325° |
| 2026-05-05 16:49 | -17.59939 | -63.16739 | 3652 ft | 192 kts | 325° |
| 2026-05-05 16:49 | -17.58762 | -63.17568 | 3961 ft | 216 kts | 325° |
| 2026-05-05 16:50 | -17.57516 | -63.18563 | 4463 ft | 232 kts | 317° |
| 2026-05-05 16:50 | -17.56402 | -63.19826 | 5182 ft | 240 kts | 308° |
| 2026-05-05 16:50 | -17.55491 | -63.21285 | 5936 ft | 244 kts | 303° |
| 2026-05-05 16:50 | -17.54608 | -63.22820 | 6702 ft | 247 kts | 303° |
| 2026-05-05 16:51 | -17.53715 | -63.24375 | 7394 ft | 251 kts | 303° |
| 2026-05-05 16:51 | -17.52799 | -63.25963 | 8063 ft | 257 kts | 303° |
| 2026-05-05 16:51 | -17.51866 | -63.27579 | 8738 ft | 261 kts | 304° |
| 2026-05-05 16:51 | -17.50917 | -63.29224 | 9390 ft | 267 kts | 303° |
| 2026-05-05 16:52 | -17.49943 | -63.30912 | 9999 ft | 273 kts | 304° |
| 2026-05-05 16:52 | -17.48950 | -63.32632 | 10328 ft | 289 kts | 303° |
| 2026-05-05 16:52 | -17.47865 | -63.34506 | 10455 ft | 312 kts | 303° |
| 2026-05-05 16:52 | -17.46711 | -63.36501 | 10749 ft | 326 kts | 303° |
| 2026-05-05 16:53 | -17.45521 | -63.38559 | 11251 ft | 332 kts | 304° |
| 2026-05-05 16:53 | -17.44316 | -63.40646 | 11757 ft | 338 kts | 303° |
| 2026-05-05 16:53 | -17.43085 | -63.42775 | 12288 ft | 343 kts | 303° |
| 2026-05-05 16:53 | -17.41835 | -63.44935 | 12779 ft | 349 kts | 303° |
| 2026-05-05 16:54 | -17.40567 | -63.47128 | 13341 ft | 352 kts | 304° |
| 2026-05-05 16:54 | -17.39288 | -63.49336 | 13849 ft | 357 kts | 304° |
| 2026-05-05 16:54 | -17.37988 | -63.51579 | 14268 ft | 362 kts | 304° |
| 2026-05-05 16:54 | -17.36673 | -63.53850 | 14721 ft | 367 kts | 304° |
| 2026-05-05 16:55 | -17.35195 | -63.55987 | 15169 ft | 368 kts | 314° |
| 2026-05-05 16:55 | -17.33282 | -63.57770 | 15621 ft | 369 kts | 327° |
| 2026-05-05 16:55 | -17.31038 | -63.59077 | 16071 ft | 371 kts | 339° |
| 2026-05-05 16:55 | -17.28586 | -63.59962 | 16514 ft | 375 kts | 342° |
| 2026-05-05 16:56 | -17.26089 | -63.60813 | 16946 ft | 379 kts | 342° |
| 2026-05-05 16:56 | -17.23570 | -63.61670 | 17370 ft | 384 kts | 342° |
| 2026-05-05 16:56 | -17.21011 | -63.62543 | 17817 ft | 388 kts | 342° |
| 2026-05-05 16:56 | -17.18431 | -63.63423 | 18252 ft | 392 kts | 342° |
| 2026-05-05 16:57 | -17.15821 | -63.64315 | 18661 ft | 396 kts | 342° |
| 2026-05-05 16:57 | -17.13193 | -63.65213 | 19086 ft | 398 kts | 342° |
| 2026-05-05 16:57 | -17.10583 | -63.66107 | 19532 ft | 400 kts | 342° |
| 2026-05-05 16:57 | -17.07930 | -63.67015 | 19984 ft | 402 kts | 342° |
| 2026-05-05 16:58 | -17.05266 | -63.67925 | 20440 ft | 404 kts | 342° |
| 2026-05-05 16:58 | -17.02584 | -63.68842 | 20900 ft | 406 kts | 342° |
| 2026-05-05 16:58 | -16.99896 | -63.69763 | 21377 ft | 407 kts | 342° |
| 2026-05-05 16:58 | -16.97187 | -63.70687 | 21808 ft | 410 kts | 342° |
| 2026-05-05 16:59 | -16.94466 | -63.71610 | 22248 ft | 412 kts | 342° |
| 2026-05-05 16:59 | -16.91732 | -63.72536 | 22664 ft | 414 kts | 342° |
| 2026-05-05 16:59 | -16.88988 | -63.73468 | 23101 ft | 416 kts | 342° |
| 2026-05-05 16:59 | -16.86231 | -63.74409 | 23521 ft | 417 kts | 342° |
| 2026-05-05 17:00 | -16.83463 | -63.75358 | 23875 ft | 419 kts | 342° |
| 2026-05-05 17:00 | -16.80724 | -63.76295 | 24184 ft | 421 kts | 342° |
| 2026-05-05 17:00 | -16.77929 | -63.77250 | 24472 ft | 424 kts | 342° |
| 2026-05-05 17:00 | -16.75113 | -63.78210 | 24793 ft | 426 kts | 342° |
| 2026-05-05 17:01 | -16.72282 | -63.79175 | 25107 ft | 428 kts | 341° |
| 2026-05-05 17:01 | -16.69437 | -63.80141 | 25422 ft | 430 kts | 341° |
| 2026-05-05 17:01 | -16.66583 | -63.81107 | 25717 ft | 433 kts | 341° |
| 2026-05-05 17:01 | -16.63710 | -63.82079 | 26004 ft | 435 kts | 342° |
| 2026-05-05 17:02 | -16.60851 | -63.83052 | 26283 ft | 437 kts | 341° |
| 2026-05-05 17:02 | -16.57950 | -63.84040 | 26576 ft | 439 kts | 341° |
| 2026-05-05 17:02 | -16.55027 | -63.84996 | 26876 ft | 440 kts | 346° |
| 2026-05-05 17:02 | -16.51982 | -63.85461 | 27150 ft | 443 kts | 358° |
| 2026-05-05 17:03 | -16.48888 | -63.85253 | 27402 ft | 447 kts | 9° |
| 2026-05-05 17:03 | -16.45894 | -63.84362 | 27651 ft | 450 kts | 21° |
| 2026-05-05 17:03 | -16.43151 | -63.82847 | 27898 ft | 454 kts | 34° |
| 2026-05-05 17:03 | -16.40634 | -63.80836 | 28145 ft | 457 kts | 38° |
| 2026-05-05 17:04 | -16.38138 | -63.78769 | 28387 ft | 459 kts | 38° |
| 2026-05-05 17:04 | -16.35632 | -63.76693 | 28643 ft | 461 kts | 38° |
| 2026-05-05 17:04 | -16.33109 | -63.74602 | 28871 ft | 464 kts | 38° |
| 2026-05-05 17:04 | -16.30578 | -63.72512 | 29106 ft | 466 kts | 37° |
| 2026-05-05 17:05 | -16.28027 | -63.70406 | 29311 ft | 468 kts | 37° |
| 2026-05-05 17:05 | -16.25471 | -63.68298 | 29542 ft | 470 kts | 38° |
| 2026-05-05 17:05 | -16.22901 | -63.66178 | 29758 ft | 472 kts | 37° |
| 2026-05-05 17:05 | -16.20314 | -63.64048 | 29965 ft | 474 kts | 37° |
| 2026-05-05 17:06 | -16.17726 | -63.61921 | 30155 ft | 476 kts | 37° |
| 2026-05-05 17:06 | -16.15121 | -63.59774 | 30324 ft | 477 kts | 37° |
| 2026-05-05 17:06 | -16.12546 | -63.57649 | 30512 ft | 479 kts | 37° |
| 2026-05-05 17:06 | -16.09933 | -63.55497 | 30672 ft | 480 kts | 37° |
| 2026-05-05 17:07 | -16.07301 | -63.53330 | 30890 ft | 480 kts | 37° |
| 2026-05-05 17:07 | -16.04683 | -63.51169 | 31123 ft | 480 kts | 37° |
| 2026-05-05 17:07 | -16.02073 | -63.49018 | 31391 ft | 479 kts | 37° |
| 2026-05-05 17:07 | -15.99453 | -63.46866 | 31613 ft | 479 kts | 37° |
| 2026-05-05 17:08 | -15.96841 | -63.44722 | 31868 ft | 478 kts | 37° |
| 2026-05-05 17:08 | -15.94235 | -63.42583 | 32117 ft | 477 kts | 37° |
| 2026-05-05 17:08 | -15.91628 | -63.40442 | 32383 ft | 476 kts | 37° |
| 2026-05-05 17:08 | -15.89027 | -63.38304 | 32613 ft | 476 kts | 37° |
| 2026-05-05 17:09 | -15.86467 | -63.36201 | 32866 ft | 475 kts | 37° |
| 2026-05-05 17:09 | -15.83864 | -63.34070 | 33113 ft | 476 kts | 37° |
| 2026-05-05 17:09 | -15.81266 | -63.31943 | 33366 ft | 475 kts | 37° |
| 2026-05-05 17:09 | -15.78664 | -63.29814 | 33609 ft | 475 kts | 37° |
| 2026-05-05 17:10 | -15.76076 | -63.27695 | 33872 ft | 474 kts | 37° |
| 2026-05-05 17:10 | -15.73484 | -63.25569 | 34115 ft | 474 kts | 37° |
| 2026-05-05 17:10 | -15.70898 | -63.23448 | 34335 ft | 473 kts | 37° |
| 2026-05-05 17:10 | -15.68316 | -63.21330 | 34571 ft | 472 kts | 37° |
| 2026-05-05 17:11 | -15.65765 | -63.19242 | 34780 ft | 472 kts | 37° |
| 2026-05-05 17:11 | -15.63189 | -63.17135 | 35001 ft | 471 kts | 37° |
| 2026-05-05 17:11 | -15.60614 | -63.15031 | 35201 ft | 471 kts | 37° |
| 2026-05-05 17:11 | -15.58046 | -63.12935 | 35429 ft | 470 kts | 37° |
| 2026-05-05 17:12 | -15.55474 | -63.10832 | 35612 ft | 470 kts | 37° |
| 2026-05-05 17:12 | -15.52914 | -63.08735 | 35804 ft | 469 kts | 37° |
| 2026-05-05 17:12 | -15.50354 | -63.06641 | 35969 ft | 469 kts | 37° |
| 2026-05-05 17:12 | -15.47786 | -63.04542 | 36159 ft | 468 kts | 37° |
| 2026-05-05 17:13 | -15.45223 | -63.02448 | 36326 ft | 468 kts | 37° |
| 2026-05-05 17:13 | -15.42659 | -63.00354 | 36514 ft | 468 kts | 37° |
| 2026-05-05 17:13 | -15.40133 | -62.98295 | 36669 ft | 467 kts | 37° |
| 2026-05-05 17:13 | -15.37574 | -62.96211 | 36839 ft | 467 kts | 37° |
| 2026-05-05 17:14 | -15.35016 | -62.94123 | 36966 ft | 467 kts | 37° |
| 2026-05-05 17:14 | -15.32459 | -62.92043 | 36990 ft | 466 kts | 36° |
| 2026-05-05 17:14 | -15.27350 | -62.87887 | 36992 ft | 466 kts | 37° |
| 2026-05-05 17:15 | -15.22285 | -62.83759 | 36992 ft | 465 kts | 37° |
| 2026-05-05 17:15 | -15.17189 | -62.79611 | 36992 ft | 466 kts | 37° |
| 2026-05-05 17:16 | -15.12117 | -62.75481 | 36993 ft | 466 kts | 37° |
| 2026-05-05 17:16 | -15.06995 | -62.71363 | 36996 ft | 465 kts | 32° |
| 2026-05-05 17:17 | -15.01205 | -62.68498 | 36998 ft | 460 kts | 13° |
| 2026-05-05 17:17 | -14.94934 | -62.67248 | 36996 ft | 459 kts | 8° |
| 2026-05-05 17:18 | -14.88632 | -62.66123 | 36999 ft | 459 kts | 8° |
| 2026-05-05 17:18 | -14.82333 | -62.64994 | 37003 ft | 459 kts | 8° |
| 2026-05-05 17:19 | -14.76085 | -62.63867 | 37002 ft | 459 kts | 8° |
| 2026-05-05 17:19 | -14.69771 | -62.62744 | 37006 ft | 459 kts | 8° |
| 2026-05-05 17:20 | -14.63463 | -62.61625 | 37008 ft | 459 kts | 8° |
| 2026-05-05 17:20 | -14.57207 | -62.60504 | 37000 ft | 459 kts | 8° |
| 2026-05-05 17:21 | -14.50907 | -62.59378 | 37007 ft | 459 kts | 8° |
| 2026-05-05 17:22 | -14.41462 | -62.57704 | 37006 ft | 458 kts | 8° |
| 2026-05-05 17:22 | -14.35215 | -62.56588 | 37012 ft | 458 kts | 8° |
| 2026-05-05 17:23 | -14.28927 | -62.55468 | 37012 ft | 458 kts | 8° |
| 2026-05-05 17:23 | -14.22636 | -62.54354 | 37006 ft | 458 kts | 8° |
| 2026-05-05 17:24 | -14.16349 | -62.53236 | 37014 ft | 458 kts | 8° |
| 2026-05-05 17:24 | -14.10111 | -62.52127 | 37009 ft | 457 kts | 8° |
| 2026-05-05 17:25 | -14.03823 | -62.51015 | 37012 ft | 458 kts | 8° |
| 2026-05-05 17:25 | -13.97539 | -62.49903 | 37003 ft | 458 kts | 8° |
| 2026-05-05 17:26 | -13.91253 | -62.48785 | 37008 ft | 458 kts | 8° |
| 2026-05-05 17:26 | -13.85004 | -62.47676 | 37011 ft | 457 kts | 8° |
| 2026-05-05 17:27 | -13.78722 | -62.46565 | 37011 ft | 457 kts | 8° |
| 2026-05-05 17:27 | -13.72491 | -62.45457 | 37017 ft | 457 kts | 8° |
| 2026-05-05 17:28 | -13.66208 | -62.44344 | 37010 ft | 457 kts | 8° |
| 2026-05-05 17:28 | -13.59942 | -62.43223 | 37017 ft | 457 kts | 8° |
| 2026-05-05 17:29 | -13.53683 | -62.42098 | 37013 ft | 457 kts | 8° |
| 2026-05-05 17:29 | -13.47409 | -62.40980 | 37017 ft | 456 kts | 8° |
| 2026-05-05 17:30 | -13.41174 | -62.39883 | 37015 ft | 456 kts | 8° |
| 2026-05-05 17:30 | -13.34912 | -62.38768 | 37014 ft | 456 kts | 8° |
| 2026-05-05 17:31 | -13.28655 | -62.37648 | 37014 ft | 456 kts | 8° |
| 2026-05-05 17:31 | -13.22396 | -62.36530 | 37017 ft | 456 kts | 8° |
| 2026-05-05 17:32 | -13.16144 | -62.35418 | 37015 ft | 455 kts | 8° |
| 2026-05-05 17:32 | -13.10956 | -62.34467 | 37011 ft | 455 kts | 9° |
| 2026-05-05 17:33 | -13.03725 | -62.33071 | 37013 ft | 455 kts | 9° |
| 2026-05-05 17:33 | -12.98541 | -62.32059 | 37011 ft | 455 kts | 9° |
| 2026-05-05 17:34 | -12.92322 | -62.30858 | 37010 ft | 454 kts | 9° |
| 2026-05-05 17:34 | -12.86108 | -62.29668 | 37006 ft | 454 kts | 9° |
| 2026-05-05 17:35 | -12.79897 | -62.28478 | 37011 ft | 454 kts | 9° |
| 2026-05-05 17:35 | -12.73679 | -62.27291 | 37014 ft | 453 kts | 9° |
| 2026-05-05 17:36 | -12.67513 | -62.26111 | 37007 ft | 453 kts | 9° |
| 2026-05-05 17:36 | -12.61301 | -62.24930 | 37010 ft | 453 kts | 9° |
| 2026-05-05 17:37 | -12.55091 | -62.23744 | 37012 ft | 453 kts | 9° |
| 2026-05-05 17:37 | -12.48887 | -62.22554 | 37013 ft | 453 kts | 9° |
| 2026-05-05 17:38 | -12.42681 | -62.21369 | 37005 ft | 454 kts | 9° |
| 2026-05-05 17:38 | -12.36514 | -62.20195 | 37014 ft | 454 kts | 9° |
| 2026-05-05 17:39 | -12.30293 | -62.19010 | 37011 ft | 454 kts | 9° |
| 2026-05-05 17:39 | -12.24073 | -62.17826 | 37014 ft | 454 kts | 10° |
| 2026-05-05 17:40 | -12.17852 | -62.16642 | 37017 ft | 454 kts | 9° |
| 2026-05-05 17:40 | -12.11620 | -62.15458 | 37019 ft | 454 kts | 9° |
| 2026-05-05 17:41 | -12.05434 | -62.14290 | 37019 ft | 454 kts | 9° |
| 2026-05-05 17:41 | -11.99197 | -62.13104 | 37019 ft | 454 kts | 10° |
| 2026-05-05 17:42 | -11.92973 | -62.11915 | 37019 ft | 454 kts | 9° |
| 2026-05-05 17:42 | -11.86755 | -62.10735 | 37021 ft | 455 kts | 9° |
| 2026-05-05 17:43 | -11.80575 | -62.09559 | 37017 ft | 455 kts | 9° |
| 2026-05-05 17:43 | -11.74353 | -62.08380 | 37009 ft | 455 kts | 9° |
| 2026-05-05 17:44 | -11.68108 | -62.07328 | 37013 ft | 454 kts | 8° |
| 2026-05-05 17:44 | -11.61836 | -62.06381 | 37011 ft | 454 kts | 8° |
| 2026-05-05 17:45 | -11.55581 | -62.05417 | 37009 ft | 454 kts | 8° |
| 2026-05-05 17:45 | -11.49333 | -62.04420 | 37014 ft | 454 kts | 8° |
| 2026-05-05 17:46 | -11.43111 | -62.03420 | 37010 ft | 454 kts | 8° |
| 2026-05-05 17:46 | -11.36862 | -62.02426 | 37015 ft | 454 kts | 8° |
| 2026-05-05 17:47 | -11.30647 | -62.01434 | 37008 ft | 454 kts | 8° |
| 2026-05-05 17:47 | -11.24402 | -62.00447 | 37009 ft | 454 kts | 8° |
| 2026-05-05 17:48 | -11.18155 | -61.99456 | 37012 ft | 454 kts | 8° |
| 2026-05-05 17:48 | -11.11913 | -61.98466 | 37010 ft | 453 kts | 8° |
| 2026-05-05 17:49 | -11.05675 | -61.97472 | 37008 ft | 453 kts | 8° |
| 2026-05-05 17:49 | -10.99466 | -61.96490 | 37010 ft | 453 kts | 8° |
| 2026-05-05 17:50 | -10.93233 | -61.95499 | 37009 ft | 453 kts | 9° |
| 2026-05-05 17:50 | -10.87007 | -61.94447 | 37009 ft | 453 kts | 11° |
| 2026-05-05 17:51 | -10.80855 | -61.93021 | 37012 ft | 453 kts | 14° |
| 2026-05-05 17:51 | -10.74788 | -61.91404 | 37009 ft | 453 kts | 14° |
| 2026-05-05 17:52 | -10.68671 | -61.89832 | 37005 ft | 453 kts | 13° |
| 2026-05-05 17:52 | -10.62530 | -61.88345 | 37007 ft | 453 kts | 13° |
| 2026-05-05 17:53 | -10.56389 | -61.86867 | 37005 ft | 453 kts | 14° |
| 2026-05-05 17:53 | -10.50288 | -61.85388 | 37011 ft | 453 kts | 14° |
| 2026-05-05 17:54 | -10.44156 | -61.83894 | 37003 ft | 453 kts | 14° |
| 2026-05-05 17:54 | -10.38030 | -61.82391 | 37007 ft | 453 kts | 14° |
| 2026-05-05 17:55 | -10.31901 | -61.80894 | 37007 ft | 453 kts | 14° |
| 2026-05-05 17:55 | -10.25797 | -61.79408 | 37003 ft | 452 kts | 14° |
| 2026-05-05 17:56 | -10.19667 | -61.77914 | 37001 ft | 452 kts | 14° |
| 2026-05-05 17:56 | -10.13537 | -61.76428 | 37003 ft | 452 kts | 14° |
| 2026-05-05 17:57 | -10.07418 | -61.74937 | 37006 ft | 452 kts | 14° |
| 2026-05-05 17:57 | -10.01331 | -61.73449 | 37005 ft | 452 kts | 14° |
| 2026-05-05 17:58 | -9.95199 | -61.71954 | 36996 ft | 453 kts | 14° |
| 2026-05-05 17:58 | -9.89051 | -61.70460 | 36989 ft | 454 kts | 14° |
| 2026-05-05 17:59 | -9.82900 | -61.68967 | 36989 ft | 455 kts | 14° |
| 2026-05-05 17:59 | -9.76738 | -61.67476 | 36992 ft | 455 kts | 14° |
| 2026-05-05 18:00 | -9.70608 | -61.65988 | 36992 ft | 456 kts | 14° |
| 2026-05-05 18:00 | -9.64433 | -61.64488 | 36988 ft | 456 kts | 13° |
| 2026-05-05 18:01 | -9.58254 | -61.62996 | 37003 ft | 456 kts | 13° |
| 2026-05-05 18:01 | -9.52052 | -61.61597 | 37000 ft | 456 kts | 12° |
| 2026-05-05 18:02 | -9.45898 | -61.60236 | 37005 ft | 456 kts | 12° |
| 2026-05-05 18:02 | -9.39708 | -61.58856 | 37005 ft | 455 kts | 12° |
| 2026-05-05 18:03 | -9.33514 | -61.57457 | 37003 ft | 455 kts | 12° |
| 2026-05-05 18:03 | -9.27322 | -61.56056 | 37003 ft | 455 kts | 13° |
| 2026-05-05 18:04 | -9.21134 | -61.54658 | 37005 ft | 455 kts | 13° |
| 2026-05-05 18:04 | -9.14981 | -61.53269 | 37008 ft | 455 kts | 13° |
| 2026-05-05 18:05 | -9.08804 | -61.51862 | 37000 ft | 455 kts | 13° |
| 2026-05-05 18:05 | -9.02622 | -61.50442 | 37005 ft | 455 kts | 13° |
| 2026-05-05 18:06 | -8.96486 | -61.49042 | 37008 ft | 454 kts | 13° |
| 2026-05-05 18:06 | -8.90313 | -61.47631 | 37008 ft | 454 kts | 14° |
| 2026-05-05 18:07 | -8.84147 | -61.46225 | 37007 ft | 453 kts | 13° |
| 2026-05-05 18:07 | -8.77992 | -61.44819 | 37002 ft | 453 kts | 14° |
| 2026-05-05 18:08 | -8.71843 | -61.43417 | 37005 ft | 453 kts | 14° |
| 2026-05-05 18:08 | -8.65693 | -61.42017 | 37004 ft | 453 kts | 14° |
| 2026-05-05 18:09 | -8.59536 | -61.40615 | 37003 ft | 453 kts | 13° |
| 2026-05-05 18:09 | -8.53396 | -61.39219 | 37007 ft | 452 kts | 13° |
| 2026-05-05 18:10 | -8.47295 | -61.37829 | 36991 ft | 452 kts | 13° |
| 2026-05-05 18:10 | -8.41159 | -61.36440 | 36998 ft | 452 kts | 13° |
| 2026-05-05 18:11 | -8.35024 | -61.35035 | 37000 ft | 452 kts | 14° |
| 2026-05-05 18:11 | -8.28893 | -61.33630 | 37003 ft | 452 kts | 13° |
| 2026-05-05 18:12 | -8.22757 | -61.32236 | 36996 ft | 452 kts | 14° |
| 2026-05-05 18:12 | -8.16624 | -61.30843 | 36998 ft | 452 kts | 13° |
| 2026-05-05 18:13 | -8.10497 | -61.29446 | 36985 ft | 452 kts | 14° |
| 2026-05-05 18:13 | -8.04366 | -61.28043 | 36992 ft | 452 kts | 14° |
| 2026-05-05 18:14 | -7.98228 | -61.26646 | 36993 ft | 452 kts | 14° |
| 2026-05-05 18:14 | -7.92093 | -61.25251 | 36992 ft | 452 kts | 14° |
| 2026-05-05 18:15 | -7.85991 | -61.23864 | 37000 ft | 452 kts | 14° |
| 2026-05-05 18:15 | -7.79849 | -61.22458 | 37000 ft | 452 kts | 13° |
| 2026-05-05 18:16 | -7.73695 | -61.21062 | 36994 ft | 452 kts | 13° |
| 2026-05-05 18:16 | -7.67553 | -61.19671 | 36993 ft | 452 kts | 13° |
| 2026-05-05 18:17 | -7.61448 | -61.18284 | 36992 ft | 452 kts | 13° |
| 2026-05-05 18:17 | -7.55311 | -61.16887 | 36989 ft | 452 kts | 13° |
| 2026-05-05 18:18 | -7.49168 | -61.15498 | 36992 ft | 452 kts | 13° |
| 2026-05-05 18:18 | -7.43024 | -61.14109 | 36996 ft | 452 kts | 13° |
| 2026-05-05 18:19 | -7.36932 | -61.12725 | 36997 ft | 452 kts | 13° |
| 2026-05-05 18:19 | -7.30795 | -61.11328 | 36989 ft | 451 kts | 13° |
| 2026-05-05 18:20 | -7.25703 | -61.10173 | 36986 ft | 451 kts | 13° |
| 2026-05-05 18:20 | -7.18541 | -61.08556 | 36994 ft | 451 kts | 13° |
| 2026-05-05 18:21 | -7.12449 | -61.07180 | 36991 ft | 451 kts | 13° |
| 2026-05-05 18:21 | -7.07325 | -61.06020 | 36990 ft | 451 kts | 13° |
| 2026-05-05 18:22 | -7.01245 | -61.04638 | 36989 ft | 450 kts | 13° |
| 2026-05-05 18:22 | -6.95122 | -61.03254 | 36990 ft | 450 kts | 13° |
| 2026-05-05 18:23 | -6.89009 | -61.01879 | 36993 ft | 450 kts | 13° |
| 2026-05-05 18:23 | -6.82892 | -61.00490 | 36983 ft | 450 kts | 13° |
| 2026-05-05 18:24 | -6.76774 | -60.99105 | 36988 ft | 450 kts | 13° |
| 2026-05-05 18:24 | -6.70696 | -60.97736 | 36985 ft | 450 kts | 13° |
| 2026-05-05 18:25 | -6.64592 | -60.96349 | 36986 ft | 450 kts | 13° |
| 2026-05-05 18:25 | -6.58487 | -60.94968 | 36985 ft | 449 kts | 13° |
| 2026-05-05 18:26 | -6.52378 | -60.93589 | 36987 ft | 449 kts | 13° |
| 2026-05-05 18:26 | -6.46275 | -60.92212 | 36989 ft | 449 kts | 13° |
| 2026-05-05 18:27 | -6.40208 | -60.90849 | 36983 ft | 449 kts | 13° |
| 2026-05-05 18:27 | -6.34108 | -60.89473 | 36978 ft | 449 kts | 13° |
| 2026-05-05 18:28 | -6.24971 | -60.87377 | 36982 ft | 448 kts | 13° |
| 2026-05-05 18:28 | -6.18893 | -60.85933 | 36979 ft | 448 kts | 14° |
| 2026-05-05 18:29 | -6.12854 | -60.84502 | 36973 ft | 448 kts | 13° |
| 2026-05-05 18:29 | -6.06781 | -60.83077 | 36972 ft | 448 kts | 13° |
| 2026-05-05 18:30 | -6.00706 | -60.81649 | 36979 ft | 448 kts | 13° |
| 2026-05-05 18:30 | -5.94613 | -60.80228 | 36978 ft | 448 kts | 14° |
| 2026-05-05 18:31 | -5.88536 | -60.78808 | 36977 ft | 448 kts | 14° |
| 2026-05-05 18:31 | -5.82460 | -60.77378 | 36970 ft | 448 kts | 14° |
| 2026-05-05 18:32 | -5.76423 | -60.75957 | 36975 ft | 448 kts | 14° |
| 2026-05-05 18:32 | -5.70346 | -60.74532 | 36971 ft | 448 kts | 14° |
| 2026-05-05 18:33 | -5.64277 | -60.73009 | 36964 ft | 447 kts | 20° |
| 2026-05-05 18:33 | -5.58880 | -60.70056 | 36965 ft | 445 kts | 39° |
| 2026-05-05 18:34 | -5.54077 | -60.66137 | 36965 ft | 445 kts | 39° |
| 2026-05-05 18:34 | -5.49252 | -60.62227 | 36959 ft | 445 kts | 39° |
| 2026-05-05 18:35 | -5.44458 | -60.58356 | 36963 ft | 445 kts | 39° |
| 2026-05-05 18:35 | -5.39630 | -60.54453 | 36964 ft | 445 kts | 39° |
| 2026-05-05 18:36 | -5.34816 | -60.50545 | 36959 ft | 445 kts | 39° |
| 2026-05-05 18:36 | -5.29996 | -60.46630 | 36956 ft | 445 kts | 39° |
| 2026-05-05 18:37 | -5.25170 | -60.42726 | 36966 ft | 445 kts | 39° |
| 2026-05-05 18:37 | -5.20338 | -60.38824 | 36963 ft | 445 kts | 39° |
| 2026-05-05 18:38 | -5.15506 | -60.34916 | 36966 ft | 445 kts | 39° |
| 2026-05-05 18:38 | -5.10726 | -60.31041 | 36965 ft | 445 kts | 39° |
| 2026-05-05 18:39 | -5.05908 | -60.27132 | 36974 ft | 445 kts | 39° |
| 2026-05-05 18:39 | -5.01087 | -60.23224 | 36971 ft | 445 kts | 39° |
| 2026-05-05 18:40 | -4.96271 | -60.19329 | 36965 ft | 445 kts | 39° |
| 2026-05-05 18:40 | -4.91444 | -60.15436 | 36966 ft | 445 kts | 39° |
| 2026-05-05 18:41 | -4.86625 | -60.11544 | 36976 ft | 444 kts | 39° |
| 2026-05-05 18:41 | -4.81848 | -60.07680 | 36877 ft | 444 kts | 39° |
| 2026-05-05 18:42 | -4.79442 | -60.05736 | 36625 ft | 443 kts | 39° |
| 2026-05-05 18:42 | -4.77042 | -60.03797 | 36380 ft | 443 kts | 39° |
| 2026-05-05 18:42 | -4.74637 | -60.01853 | 36137 ft | 444 kts | 39° |
| 2026-05-05 18:42 | -4.72237 | -59.99911 | 35898 ft | 444 kts | 39° |
| 2026-05-05 18:43 | -4.69824 | -59.97959 | 35199 ft | 447 kts | 39° |
| 2026-05-05 18:43 | -4.67387 | -59.95986 | 34357 ft | 451 kts | 40° |
| 2026-05-05 18:43 | -4.64886 | -59.94067 | 33422 ft | 456 kts | 34° |
| 2026-05-05 18:43 | -4.62119 | -59.92603 | 32740 ft | 451 kts | 23° |
| 2026-05-05 18:44 | -4.59118 | -59.91666 | 32175 ft | 445 kts | 13° |
| 2026-05-05 18:44 | -4.56074 | -59.91284 | 31573 ft | 446 kts | 3° |
| 2026-05-05 18:44 | -4.52976 | -59.91440 | 30982 ft | 446 kts | 356° |
| 2026-05-05 18:44 | -4.49896 | -59.91735 | 30388 ft | 445 kts | 356° |
| 2026-05-05 18:45 | -4.46811 | -59.92029 | 29759 ft | 444 kts | 356° |
| 2026-05-05 18:45 | -4.43739 | -59.92319 | 29148 ft | 441 kts | 356° |
| 2026-05-05 18:45 | -4.40691 | -59.92607 | 28572 ft | 438 kts | 356° |
| 2026-05-05 18:45 | -4.37673 | -59.92895 | 27998 ft | 435 kts | 356° |
| 2026-05-05 18:46 | -4.34705 | -59.93178 | 27441 ft | 432 kts | 356° |
| 2026-05-05 18:46 | -4.31723 | -59.93462 | 26892 ft | 429 kts | 356° |
| 2026-05-05 18:46 | -4.28761 | -59.93744 | 26357 ft | 426 kts | 356° |
| 2026-05-05 18:46 | -4.25809 | -59.94024 | 25821 ft | 423 kts | 356° |
| 2026-05-05 18:47 | -4.22893 | -59.94298 | 25310 ft | 420 kts | 356° |
| 2026-05-05 18:47 | -4.19981 | -59.94572 | 24801 ft | 418 kts | 356° |
| 2026-05-05 18:47 | -4.17088 | -59.94844 | 24295 ft | 416 kts | 355° |
| 2026-05-05 18:47 | -4.14216 | -59.95115 | 23790 ft | 414 kts | 355° |
| 2026-05-05 18:48 | -4.11387 | -59.95385 | 23238 ft | 413 kts | 354° |
| 2026-05-05 18:48 | -4.08573 | -59.95946 | 22736 ft | 410 kts | 345° |
| 2026-05-05 18:48 | -4.05848 | -59.96765 | 22230 ft | 407 kts | 344° |
| 2026-05-05 18:48 | -4.03141 | -59.97578 | 21729 ft | 405 kts | 344° |
| 2026-05-05 18:49 | -4.00442 | -59.98386 | 21227 ft | 402 kts | 345° |
| 2026-05-05 18:49 | -3.97827 | -59.99169 | 20725 ft | 389 kts | 345° |
| 2026-05-05 18:49 | -3.95271 | -59.99935 | 20239 ft | 376 kts | 345° |
| 2026-05-05 18:49 | -3.92796 | -60.00676 | 19761 ft | 364 kts | 345° |
| 2026-05-05 18:50 | -3.90401 | -60.01393 | 19292 ft | 353 kts | 345° |
| 2026-05-05 18:50 | -3.88056 | -60.02096 | 18843 ft | 351 kts | 345° |
| 2026-05-05 18:50 | -3.85735 | -60.02789 | 18401 ft | 353 kts | 345° |
| 2026-05-05 18:50 | -3.83377 | -60.03490 | 17901 ft | 354 kts | 345° |
| 2026-05-05 18:51 | -3.81012 | -60.04194 | 17441 ft | 354 kts | 345° |
| 2026-05-05 18:51 | -3.78648 | -60.04900 | 16990 ft | 353 kts | 345° |
| 2026-05-05 18:51 | -3.76300 | -60.05602 | 16537 ft | 353 kts | 345° |
| 2026-05-05 18:51 | -3.73951 | -60.06307 | 16100 ft | 352 kts | 345° |
| 2026-05-05 18:52 | -3.71594 | -60.07016 | 15651 ft | 352 kts | 345° |
| 2026-05-05 18:52 | -3.69246 | -60.07721 | 15207 ft | 352 kts | 345° |
| 2026-05-05 18:52 | -3.66922 | -60.08418 | 14768 ft | 353 kts | 345° |
| 2026-05-05 18:52 | -3.64568 | -60.09124 | 14308 ft | 353 kts | 345° |
| 2026-05-05 18:53 | -3.62208 | -60.09830 | 13857 ft | 354 kts | 345° |
| 2026-05-05 18:53 | -3.59845 | -60.10534 | 13371 ft | 354 kts | 345° |
| 2026-05-05 18:53 | -3.57491 | -60.11236 | 12908 ft | 352 kts | 345° |
| 2026-05-05 18:53 | -3.55146 | -60.11937 | 12446 ft | 351 kts | 345° |
| 2026-05-05 18:54 | -3.52811 | -60.12635 | 11984 ft | 350 kts | 345° |
| 2026-05-05 18:54 | -3.50487 | -60.13332 | 11518 ft | 348 kts | 345° |
| 2026-05-05 18:54 | -3.48166 | -60.14030 | 11091 ft | 345 kts | 345° |
| 2026-05-05 18:54 | -3.45894 | -60.14712 | 10742 ft | 334 kts | 345° |
| 2026-05-05 18:55 | -3.43725 | -60.15363 | 10388 ft | 318 kts | 345° |
| 2026-05-05 18:55 | -3.41669 | -60.15979 | 10050 ft | 305 kts | 345° |
| 2026-05-05 18:55 | -3.39681 | -60.16574 | 9695 ft | 292 kts | 346° |
| 2026-05-05 18:55 | -3.37760 | -60.17147 | 9316 ft | 283 kts | 346° |
| 2026-05-05 18:56 | -3.35871 | -60.17711 | 8931 ft | 283 kts | 345° |
| 2026-05-05 18:56 | -3.33984 | -60.18272 | 8563 ft | 282 kts | 345° |
| 2026-05-05 18:56 | -3.32110 | -60.18830 | 8201 ft | 280 kts | 345° |
| 2026-05-05 18:56 | -3.30248 | -60.19385 | 7838 ft | 278 kts | 345° |
| 2026-05-05 18:57 | -3.28396 | -60.19938 | 7481 ft | 277 kts | 345° |
| 2026-05-05 18:57 | -3.26554 | -60.20488 | 7125 ft | 275 kts | 345° |
| 2026-05-05 18:57 | -3.24738 | -60.21028 | 6852 ft | 270 kts | 348° |
| 2026-05-05 18:57 | -3.22918 | -60.21370 | 6572 ft | 264 kts | 353° |
| 2026-05-05 18:58 | -3.21124 | -60.21669 | 6286 ft | 259 kts | 353° |
| 2026-05-05 18:58 | -3.19358 | -60.21963 | 5990 ft | 255 kts | 353° |
| 2026-05-05 18:58 | -3.17626 | -60.22251 | 5719 ft | 250 kts | 353° |
| 2026-05-05 18:58 | -3.15940 | -60.22530 | 5454 ft | 247 kts | 353° |
| 2026-05-05 18:59 | -3.14266 | -60.22898 | 5185 ft | 244 kts | 346° |
| 2026-05-05 18:59 | -3.12674 | -60.23474 | 4921 ft | 243 kts | 338° |
| 2026-05-05 18:59 | -3.11134 | -60.24139 | 4664 ft | 239 kts | 342° |
| 2026-05-05 18:59 | -3.09559 | -60.24669 | 4385 ft | 237 kts | 347° |
| 2026-05-05 19:00 | -3.07978 | -60.25057 | 4114 ft | 236 kts | 352° |
| 2026-05-05 19:00 | -3.06342 | -60.25304 | 3843 ft | 233 kts | 1° |
| 2026-05-05 19:00 | -3.04847 | -60.24901 | 3576 ft | 220 kts | 40° |
| 2026-05-05 19:00 | -3.03959 | -60.23764 | 3317 ft | 208 kts | 74° |
| 2026-05-05 19:01 | -3.03810 | -60.22355 | 3091 ft | 202 kts | 91° |
| 2026-05-05 19:01 | -3.03819 | -60.20950 | 2977 ft | 202 kts | 91° |
| 2026-05-05 19:01 | -3.03825 | -60.19543 | 2754 ft | 201 kts | 91° |
| 2026-05-05 19:01 | -3.03829 | -60.18183 | 2513 ft | 190 kts | 91° |
| 2026-05-05 19:02 | -3.03832 | -60.16901 | 2293 ft | 177 kts | 91° |
| 2026-05-05 19:02 | -3.03835 | -60.15712 | 2063 ft | 165 kts | 91° |
| 2026-05-05 19:02 | -3.03837 | -60.14574 | 1850 ft | 163 kts | 90° |
| 2026-05-05 19:02 | -3.03840 | -60.13446 | 1644 ft | 161 kts | 90° |
| 2026-05-05 19:03 | -3.03843 | -60.12326 | 1428 ft | 161 kts | 90° |
| 2026-05-05 19:03 | -3.03845 | -60.11236 | 1221 ft | 152 kts | 90° |
| 2026-05-05 19:03 | -3.03847 | -60.10216 | 1040 ft | 142 kts | 91° |
| 2026-05-05 19:03 | -3.03851 | -60.09236 | 874 ft | 141 kts | 91° |
| 2026-05-05 19:04 | -3.03856 | -60.08255 | 691 ft | 142 kts | 90° |
| 2026-05-05 19:04 | -3.03853 | -60.07265 | 524 ft | 143 kts | 90° |
| 2026-05-05 19:04 | -3.03855 | -60.06262 | 356 ft | 144 kts | 91° |
| 2026-05-05 19:04 | -3.03862 | -60.05303 | 295 ft | 124 kts | 89° |
| 2026-05-05 19:05 | -3.03858 | -60.04615 | 300 ft | 74 kts | 90° |
| 2026-05-05 19:05 | -3.03858 | -60.04240 | 303 ft | 43 kts | 90° |
| 2026-05-05 19:05 | -3.03858 | -60.03985 | 302 ft | 34 kts | 90° |
| 2026-05-05 19:05 | -3.03855 | -60.03825 | 301 ft | 16 kts | 78° |
| 2026-05-05 19:06 | -3.03779 | -60.03768 | 302 ft | 13 kts | 5° |
| 2026-05-05 19:06 | -3.03706 | -60.03805 | 302 ft | 11 kts | 311° |
| 2026-05-05 19:06 | -3.03677 | -60.03875 | 303 ft | 11 kts | 285° |
| 2026-05-05 19:06 | -3.03655 | -60.03951 | 302 ft | 13 kts | 285° |
| 2026-05-05 19:07 | -3.03649 | -60.03974 | 302 ft | 0 kts | 285° |
| 2026-05-05 19:07 | -3.03629 | -60.04045 | 302 ft | 16 kts | 285° |
| 2026-05-05 19:07 | -3.03608 | -60.04122 | 301 ft | 16 kts | 285° |
| 2026-05-05 19:08 | -3.03568 | -60.04237 | 301 ft | 19 kts | 297° |
| 2026-05-05 19:08 | -3.03482 | -60.04333 | 302 ft | 19 kts | 325° |
| 2026-05-05 19:08 | -3.03380 | -60.04375 | 301 ft | 11 kts | 346° |
| 2026-05-05 19:08 | -3.03332 | -60.04421 | 300 ft | 10 kts | 277° |
| 2026-05-05 19:09 | -3.03344 | -60.04490 | 300 ft | 11 kts | 260° |
| 2026-05-05 19:09 | -3.03355 | -60.04564 | 299 ft | 8 kts | 265° |
| 2026-05-05 19:09 | -3.03355 | -60.04614 | 299 ft | 7 kts | 273° |
| 2026-05-05 19:09 | -3.03352 | -60.04658 | 299 ft | 7 kts | 272° |
| 2026-05-05 19:10 | -3.03355 | -60.04724 | 298 ft | 10 kts | 263° |
| 2026-05-05 19:10 | -3.03317 | -60.04771 | 298 ft | 9 kts | 343° |
| 2026-05-05 19:10 | -3.03264 | -60.04774 | 298 ft | 5 kts | 12° |
| 2026-05-05 19:10 | -3.03261 | -60.04773 | 298 ft | 0 kts | 11° |